Time;durP1;ratioP1;P1;durP2;ratioP2;P2;SDS_P1;SDS_P2;PMS_P1;PMS_P2;Temp;Humidity;BMP_temperature;BMP_pressure;BME280_temperature;BME280_humidity;BME280_pressure;Samples;Min_cycle;Max_cycle;Signal;HPM_P1;HPM_P2
2021/03/16 00:00:09;;;;;;;;;;;;;;;7.29;78.42;102146.84;5081161;28;19920;-66
2021/03/16 00:02:54;;;;;;;;;;;;;;;7.46;78.17;102144.84;5097717;28;19927;-65
2021/03/16 00:05:24;;;;;;;;;;;;;;;7.64;77.24;102147.22;5063592;28;19920;-67
2021/03/16 00:07:53;;;;;;;;;;;;;;;7.86;76.17;102145.25;5085881;28;19920;-67
2021/03/16 00:10:19;;;;;;;;;;;;;;;7.87;75.53;102144.16;5096722;28;19920;-68
2021/03/16 00:12:46;;;;;;;;;;;;;;;7.43;76.89;102151.66;5097331;28;19920;-69
2021/03/16 00:15:13;;;;;;;;;;;;;;;7.46;77.43;102153.06;5097018;28;19927;-66
2021/03/16 00:17:40;;;;;;;;;;;;;;;7.86;75.75;102143.31;5096872;28;19931;-66
2021/03/16 00:20:08;;;;;;;;;;;;;;;7.66;75.73;102145.88;5096331;28;19939;-67
2021/03/16 00:22:35;;;;;;;;;;;;;;;7.48;76.80;102151.72;5097073;28;19920;-66
2021/03/16 00:25:15;;;;;;;;;;;;;;;7.64;76.24;102149.97;5078676;28;19920;-67
2021/03/16 00:27:41;;;;;;;;;;;;;;;7.33;77.30;102156.19;5096981;28;20393;-66
2021/03/16 00:30:09;;;;;;;;;;;;;;;7.46;77.40;102153.88;5078004;28;19920;-67
2021/03/16 00:32:35;;;;;;;;;;;;;;;7.63;76.99;102149.16;5096974;28;19920;-65
2021/03/16 00:35:03;;;;;;;;;;;;;;;7.95;75.22;102149.16;5079391;28;19927;-68
2021/03/16 00:37:29;;;;;;;;;;;;;;;7.89;75.01;102151.03;5096930;28;19920;-67
2021/03/16 00:39:56;;;;;;;;;;;;;;;7.66;75.77;102159.59;5078726;28;19920;-68
2021/03/16 00:42:23;;;;;;;;;;;;;;;7.85;75.52;102157.28;5096255;28;19930;-67
2021/03/16 00:44:49;;;;;;;;;;;;;;;8.06;74.51;102155.56;5078599;28;20048;-66
2021/03/16 00:47:16;;;;;;;;;;;;;;;8.13;73.89;102157.00;5095759;28;19920;-66
2021/03/16 00:49:44;;;;;;;;;;;;;;;8.11;74.08;102164.66;5096592;28;19920;-67
2021/03/16 00:52:12;;;;;;;;;;;;;;;8.11;73.86;102163.84;5062009;28;20298;-67
2021/03/16 00:54:39;;;;;;;;;;;;;;;8.16;73.89;102163.91;5078419;28;19932;-68
2021/03/16 00:57:07;;;;;;;;;;;;;;;7.83;74.55;102171.28;5061883;28;19920;-67
2021/03/16 01:03:52;;;;;;;;;;;;;;;7.78;74.87;102160.25;5096033;28;20293;-66
2021/03/16 01:06:18;;;;;;;;;;;;;;;7.91;74.51;102168.03;5095893;28;19946;-67
2021/03/16 01:08:45;;;;;;;;;;;;;;;8.15;73.73;102165.81;5077649;28;19920;-66
2021/03/16 01:11:12;;;;;;;;;;;;;;;8.32;73.41;102171.16;5094902;28;19920;-67
2021/03/16 01:13:39;;;;;;;;;;;;;;;8.30;72.73;102170.63;5095221;28;19920;-67
2021/03/16 01:16:07;;;;;;;;;;;;;;;8.26;73.37;102166.75;5095373;28;19920;-68
2021/03/16 01:18:33;;;;;;;;;;;;;;;8.39;72.26;102172.59;5096248;28;20374;-67
2021/03/16 01:21:01;;;;;;;;;;;;;;;8.32;72.36;102182.16;5111585;28;19970;-67
2021/03/16 01:23:28;;;;;;;;;;;;;;;8.35;72.18;102171.47;5078246;28;19920;-68
2021/03/16 01:26:05;;;;;;;;;;;;;;;8.17;72.73;102176.50;5096076;28;19995;-67
2021/03/16 01:28:32;;;;;;;;;;;;;;;8.20;72.79;102179.56;5095803;28;19920;-69
2021/03/16 01:30:59;;;;;;;;;;;;;;;7.95;73.59;102179.31;5096089;28;19991;-66
2021/03/16 01:33:27;;;;;;;;;;;;;;;7.99;73.37;102173.06;5095896;28;19920;-68
2021/03/16 01:35:54;;;;;;;;;;;;;;;8.15;72.57;102176.78;5077834;28;19935;-67
2021/03/16 01:38:20;;;;;;;;;;;;;;;7.79;73.82;102189.31;5095902;28;19931;-67
2021/03/16 01:40:47;;;;;;;;;;;;;;;7.79;74.30;102183.03;5094576;28;19924;-68
2021/03/16 01:43:17;;;;;;;;;;;;;;;7.60;74.81;102179.81;5077157;28;19927;-68
2021/03/16 01:45:46;;;;;;;;;;;;;;;7.74;74.62;102177.50;5095081;28;19927;-67
2021/03/16 01:48:13;;;;;;;;;;;;;;;7.82;74.17;102177.03;5078042;28;19927;-66
2021/03/16 01:50:40;;;;;;;;;;;;;;;7.88;74.07;102171.31;5095852;28;19924;-66
2021/03/16 01:53:07;;;;;;;;;;;;;;;7.79;74.22;102170.13;5095678;28;19927;-67
2021/03/16 01:55:34;;;;;;;;;;;;;;;7.50;74.92;102179.69;5076814;28;19927;-67
2021/03/16 01:58:03;;;;;;;;;;;;;;;7.59;75.09;102177.31;5094507;28;20281;-67
2021/03/16 02:00:49;;;;;;;;;;;;;;;7.98;73.80;102171.41;5094525;28;19927;-67
2021/03/16 02:03:34;;;;;;;;;;;;;;;7.70;74.33;102179.09;5076160;28;19927;-66
2021/03/16 02:06:26;;;;;;;;;;;;;;;7.80;73.91;102179.19;5095347;28;19924;-67
2021/03/16 02:09:15;;;;;;;;;;;;;;;7.70;74.51;102182.69;5080074;28;19927;-67
2021/03/16 02:12:14;;;;;;;;;;;;;;;7.69;74.54;102185.66;5080071;28;19931;-65
2021/03/16 02:15:11;;;;;;;;;;;;;;;7.91;73.99;102194.66;5079881;28;20405;-66
2021/03/16 02:17:57;;;;;;;;;;;;;;;7.74;74.01;102188.47;5080357;28;19943;-67
2021/03/16 02:20:42;;;;;;;;;;;;;;;7.61;74.27;102192.44;5079948;28;20309;-67
2021/03/16 02:23:37;;;;;;;;;;;;;;;7.48;75.07;102183.81;5094121;28;19920;-67
2021/03/16 02:26:46;;;;;;;;;;;;;;;7.34;75.80;102182.53;5094451;28;19927;-66
2021/03/16 02:33:39;;;;;;;;;;;;;;;7.26;75.64;102192.03;5094889;28;19927;-66
2021/03/16 02:36:24;;;;;;;;;;;;;;;7.32;75.52;102174.56;5078541;28;19920;-66
2021/03/16 02:39:10;;;;;;;;;;;;;;;7.17;75.69;102189.97;5094027;28;19927;-68
2021/03/16 02:41:55;;;;;;;;;;;;;;;7.30;76.11;102190.44;5079124;28;19927;-67
2021/03/16 02:48:47;;;;;;;;;;;;;;;7.39;75.55;102186.16;5094426;28;20316;-67
2021/03/16 02:51:33;;;;;;;;;;;;;;;7.27;75.34;102188.19;5061615;28;20392;-68
2021/03/16 02:54:18;;;;;;;;;;;;;;;7.23;75.84;102188.97;5078762;28;19927;-68
2021/03/16 02:57:12;;;;;;;;;;;;;;;7.26;75.91;102191.19;5093191;28;19935;-67
2021/03/16 02:59:59;;;;;;;;;;;;;;;7.18;76.28;102192.50;5093330;28;19927;-67
2021/03/16 03:02:45;;;;;;;;;;;;;;;7.03;77.03;102194.19;5064403;28;19920;-66
2021/03/16 03:05:30;;;;;;;;;;;;;;;6.96;77.61;102193.56;5078752;28;19950;-67
2021/03/16 03:08:15;;;;;;;;;;;;;;;6.86;78.57;102188.78;5079345;28;19927;-66
2021/03/16 03:11:01;;;;;;;;;;;;;;;6.83;78.57;102197.50;5079369;28;19931;-67
2021/03/16 03:17:54;;;;;;;;;;;;;;;7.32;76.92;102181.97;5093554;28;19923;-67
2021/03/16 03:20:39;;;;;;;;;;;;;;;7.24;76.94;102191.47;5093388;28;20305;-67
2021/03/16 03:23:27;;;;;;;;;;;;;;;7.05;77.80;102197.50;5093325;28;19927;-67
2021/03/16 03:26:19;;;;;;;;;;;;;;;7.29;77.40;102188.78;5078515;28;19920;-67
2021/03/16 03:29:06;;;;;;;;;;;;;;;7.08;78.16;102195.09;5078590;28;19927;-65
2021/03/16 03:31:51;;;;;;;;;;;;;;;7.04;78.02;102188.47;5078422;28;19927;-67
2021/03/16 03:34:37;;;;;;;;;;;;;;;6.96;78.65;102199.84;5092972;28;19927;-68
2021/03/16 03:37:23;;;;;;;;;;;;;;;6.95;79.22;102202.84;5075217;28;19927;-68
2021/03/16 03:40:08;;;;;;;;;;;;;;;7.02;79.09;102203.50;5093031;28;19920;-66
2021/03/16 03:42:55;;;;;;;;;;;;;;;7.14;78.60;102204.19;5078942;28;19927;-67
2021/03/16 03:45:40;;;;;;;;;;;;;;;7.20;77.66;102212.22;5092931;28;19931;-67
2021/03/16 03:48:26;;;;;;;;;;;;;;;7.15;78.30;102216.84;5092812;28;19920;-66
2021/03/16 03:51:11;;;;;;;;;;;;;;;7.30;77.90;102217.03;5064405;28;19931;-67
2021/03/16 03:53:56;;;;;;;;;;;;;;;7.30;77.47;102215.13;5078089;28;19927;-66
2021/03/16 03:56:42;;;;;;;;;;;;;;;7.04;78.83;102210.41;5078300;28;19920;-66
2021/03/16 04:03:35;;;;;;;;;;;;;;;7.11;79.24;102212.94;5093654;28;20266;-67
2021/03/16 04:06:21;;;;;;;;;;;;;;;7.19;78.83;102217.97;5077889;28;20281;-67
2021/03/16 04:09:07;;;;;;;;;;;;;;;7.16;78.74;102213.84;5077612;28;19935;-67
2021/03/16 04:11:52;;;;;;;;;;;;;;;7.47;77.45;102202.16;5078268;28;19983;-67
2021/03/16 04:14:37;;;;;;;;;;;;;;;7.32;77.44;102218.41;5078104;28;20401;-67
2021/03/16 04:17:23;;;;;;;;;;;;;;;7.24;78.63;102223.50;5078683;28;19927;-66
2021/03/16 04:20:09;;;;;;;;;;;;;;;6.95;79.47;102219.28;5092477;28;19926;-66
2021/03/16 04:22:54;;;;;;;;;;;;;;;7.09;78.72;102232.38;5092512;28;19957;-65
2021/03/16 04:25:39;;;;;;;;;;;;;;;7.14;78.98;102228.88;5092803;28;19924;-67
2021/03/16 04:28:33;;;;;;;;;;;;;;;6.98;79.39;102218.78;5093364;28;19991;-67
2021/03/16 04:31:18;;;;;;;;;;;;;;;7.04;79.11;102218.63;5092392;28;19927;-67
2021/03/16 04:34:03;;;;;;;;;;;;;;;7.09;79.22;102217.84;5092615;28;19943;-67
2021/03/16 04:36:49;;;;;;;;;;;;;;;7.09;78.88;102215.09;5093035;28;20389;-67
2021/03/16 04:39:34;;;;;;;;;;;;;;;7.11;79.44;102215.69;5093197;28;19920;-67
2021/03/16 04:42:19;;;;;;;;;;;;;;;7.05;79.35;102222.16;5092657;28;20326;-67
2021/03/16 04:49:13;;;;;;;;;;;;;;;6.97;79.43;102226.19;5096310;28;20255;-64
2021/03/16 04:51:58;;;;;;;;;;;;;;;7.11;79.20;102232.13;5096859;28;19927;-66
2021/03/16 04:54:43;;;;;;;;;;;;;;;6.98;79.69;102230.56;5095561;28;19927;-67
2021/03/16 04:57:28;;;;;;;;;;;;;;;7.01;79.54;102229.25;5096226;28;19934;-67
2021/03/16 05:00:15;;;;;;;;;;;;;;;7.32;79.09;102228.56;5095934;28;20282;-66
2021/03/16 05:03:00;;;;;;;;;;;;;;;7.16;79.41;102224.81;5095879;28;19920;-66
2021/03/16 05:05:45;;;;;;;;;;;;;;;7.21;79.15;102216.63;5095561;28;20317;-67
2021/03/16 05:08:31;;;;;;;;;;;;;;;7.21;79.12;102224.03;5095701;28;20362;-66
2021/03/16 05:11:16;;;;;;;;;;;;;;;7.31;79.18;102229.63;5095785;28;19983;-68
2021/03/16 05:14:02;;;;;;;;;;;;;;;7.30;78.87;102220.59;5096291;28;19931;-67
2021/03/16 05:16:47;;;;;;;;;;;;;;;7.20;79.01;102228.66;5095639;28;20294;-66
2021/03/16 05:19:32;;;;;;;;;;;;;;;7.19;79.08;102239.88;5096283;28;19927;-67
2021/03/16 05:22:18;;;;;;;;;;;;;;;7.50;78.49;102231.78;5080570;28;20286;-67
2021/03/16 05:25:05;;;;;;;;;;;;;;;7.30;78.97;102226.09;5095730;28;20274;-68
2021/03/16 05:27:50;;;;;;;;;;;;;;;7.22;79.17;102231.19;5080249;28;19990;-66
2021/03/16 05:34:43;;;;;;;;;;;;;;;7.13;79.41;102232.69;5095504;28;19920;-67
2021/03/16 05:37:28;;;;;;;;;;;;;;;7.39;78.24;102240.16;5080863;28;20378;-69
2021/03/16 05:40:13;;;;;;;;;;;;;;;7.12;78.75;102234.59;5095112;28;19920;-67
2021/03/16 05:43:12;;;;;;;;;;;;;;;7.32;79.09;102236.78;5089792;28;19924;-65
2021/03/16 05:45:58;;;;;;;;;;;;;;;7.34;78.26;102235.44;5080264;28;19920;-67
2021/03/16 05:48:49;;;;;;;;;;;;;;;7.23;78.30;102233.66;5095332;28;19942;-67
2021/03/16 05:51:36;;;;;;;;;;;;;;;7.19;78.74;102234.41;5094918;28;19920;-67
2021/03/16 05:54:31;;;;;;;;;;;;;;;6.91;79.47;102226.34;5094746;28;19927;-67
2021/03/16 05:57:16;;;;;;;;;;;;;;;7.08;79.38;102225.22;5094702;28;19927;-68
2021/03/16 06:04:09;;;;;;;;;;;;;;;7.23;78.50;102224.59;5094613;28;19923;-66
2021/03/16 06:06:57;;;;;;;;;;;;;;;7.03;79.23;102222.41;5094737;28;19927;-66
2021/03/16 06:09:43;;;;;;;;;;;;;;;7.25;79.12;102230.66;5065591;28;19920;-67
2021/03/16 06:12:31;;;;;;;;;;;;;;;7.03;79.39;102227.91;5095113;28;19927;-67
2021/03/16 06:15:17;;;;;;;;;;;;;;;7.17;79.47;102226.44;5095029;28;19926;-64
2021/03/16 06:18:02;;;;;;;;;;;;;;;7.51;77.67;102227.16;5079618;28;19927;-67
2021/03/16 06:20:56;;;;;;;;;;;;;;;7.55;77.43;102244.75;5080314;28;19927;-67
2021/03/16 06:23:49;;;;;;;;;;;;;;;7.43;77.80;102246.78;5079590;28;20286;-67
2021/03/16 06:26:34;;;;;;;;;;;;;;;7.43;78.41;102247.59;5094840;28;19927;-67
2021/03/16 06:29:20;;;;;;;;;;;;;;;7.29;78.42;102250.97;5094349;28;19956;-68
2021/03/16 06:32:14;;;;;;;;;;;;;;;7.42;77.92;102253.34;5094241;28;19994;-67
2021/03/16 06:35:10;;;;;;;;;;;;;;;7.43;77.91;102266.78;5093622;28;20381;-69
2021/03/16 06:38:02;;;;;;;;;;;;;;;7.33;78.26;102263.94;5094078;28;19927;-68
2021/03/16 06:40:47;;;;;;;;;;;;;;;7.25;78.88;102271.78;5079266;28;19927;-69
2021/03/16 06:43:33;;;;;;;;;;;;;;;7.32;78.71;102269.69;5078632;28;19927;-68
2021/03/16 06:50:31;;;;;;;;;;;;;;;7.42;78.17;102259.66;5093963;28;19916;-65
2021/03/16 06:53:19;;;;;;;;;;;;;;;7.53;77.83;102255.94;5093969;28;20389;-68
2021/03/16 06:56:04;;;;;;;;;;;;;;;7.33;77.18;102257.63;5093304;28;19927;-66
2021/03/16 06:58:50;;;;;;;;;;;;;;;7.25;78.50;102250.69;5093543;28;19927;-64
2021/03/16 07:01:36;;;;;;;;;;;;;;;7.09;78.92;102251.56;5078757;28;19927;-66
2021/03/16 07:04:25;;;;;;;;;;;;;;;7.57;76.98;102256.25;5093739;28;19924;-68
2021/03/16 07:07:10;;;;;;;;;;;;;;;7.29;77.50;102261.94;5093452;28;20388;-65
2021/03/16 07:10:04;;;;;;;;;;;;;;;7.08;78.85;102265.50;5094079;28;19919;-65
2021/03/16 07:12:56;;;;;;;;;;;;;;;6.96;79.55;102270.28;5094212;28;19920;-66
2021/03/16 07:20:03;;;;;;;;;;;;;;;7.16;78.84;102267.81;5092854;28;19920;-69
2021/03/16 07:22:51;;;;;;;;;;;;;;;7.37;78.35;102276.06;5092981;28;19927;-68
2021/03/16 07:25:36;;;;;;;;;;;;;;;7.39;78.01;102271.13;5078350;28;19927;-63
2021/03/16 07:28:21;;;;;;;;;;;;;;;7.56;76.82;102277.41;5093371;28;20302;-62
2021/03/16 07:31:06;;;;;;;;;;;;;;;7.62;76.76;102272.78;5093170;28;19927;-64
2021/03/16 07:33:53;;;;;;;;;;;;;;;7.68;76.67;102269.88;5093360;28;19927;-63
2021/03/16 07:36:40;;;;;;;;;;;;;;;7.54;76.91;102290.53;5078922;28;19928;-65
2021/03/16 07:39:25;;;;;;;;;;;;;;;7.27;78.31;102284.13;5093792;28;19927;-66
2021/03/16 07:42:10;;;;;;;;;;;;;;;7.54;77.56;102282.31;5078472;28;19934;-66
2021/03/16 07:44:56;;;;;;;;;;;;;;;7.50;77.58;102286.63;5078254;28;19927;-63
2021/03/16 07:47:41;;;;;;;;;;;;;;;7.70;76.90;102291.53;5077311;28;19927;-65
2021/03/16 07:50:27;;;;;;;;;;;;;;;7.87;76.04;102300.50;5078189;28;19927;-69
2021/03/16 07:53:25;;;;;;;;;;;;;;;7.80;76.21;102297.97;5074419;28;20358;-64
2021/03/16 07:56:12;;;;;;;;;;;;;;;7.60;76.79;102291.44;5072893;28;19927;-65
2021/03/16 07:58:57;;;;;;;;;;;;;;;7.62;76.99;102297.47;5054983;28;19943;-64
2021/03/16 08:05:51;;;;;;;;;;;;;;;7.94;75.58;102312.13;5087999;28;19923;-66
2021/03/16 08:08:42;;;;;;;;;;;;;;;7.95;75.62;102319.25;5058160;28;19920;-65
2021/03/16 08:11:40;;;;;;;;;;;;;;;7.65;76.49;102310.69;5057976;28;19928;-64
2021/03/16 08:14:26;;;;;;;;;;;;;;;7.64;77.15;102315.31;5070229;28;20290;-65
2021/03/16 08:17:24;;;;;;;;;;;;;;;7.80;76.61;102311.69;5073170;28;19920;-66
2021/03/16 08:20:21;;;;;;;;;;;;;;;8.16;75.88;102301.91;5073178;28;19924;-65
2021/03/16 08:23:15;;;;;;;;;;;;;;;8.29;75.42;102298.81;5074902;28;20362;-67
2021/03/16 08:26:20;;;;;;;;;;;;;;;8.21;75.19;102295.69;5076621;28;20306;-66
2021/03/16 08:29:09;;;;;;;;;;;;;;;8.12;75.79;102294.47;5062074;28;19920;-66
2021/03/16 08:36:32;;;;;;;;;;;;;;;8.28;76.16;102301.81;5071516;28;19917;-64
2021/03/16 08:39:22;;;;;;;;;;;;;;;8.08;77.11;102304.31;5073994;28;20367;-62
2021/03/16 08:42:07;;;;;;;;;;;;;;;8.04;77.09;102294.97;5075760;28;20473;-65
2021/03/16 08:44:53;;;;;;;;;;;;;;;8.11;77.38;102293.63;5043285;28;19931;-63
2021/03/16 08:47:57;;;;;;;;;;;;;;;8.38;76.74;102294.50;5076417;28;19920;-64
2021/03/16 08:50:43;;;;;;;;;;;;;;;8.50;75.75;102288.84;5076135;28;19931;-64
2021/03/16 08:53:28;;;;;;;;;;;;;;;8.31;75.94;102299.38;5075149;28;19927;-66
2021/03/16 08:56:17;;;;;;;;;;;;;;;8.13;77.14;102304.34;5095958;28;19927;-64
2021/03/16 08:59:03;;;;;;;;;;;;;;;8.11;76.59;102303.81;5081213;28;20354;-62
2021/03/16 09:06:16;;;;;;;;;;;;;;;7.75;79.13;102319.88;5095325;28;19916;-65
2021/03/16 09:09:02;;;;;;;;;;;;;;;8.08;79.00;102318.88;5095770;28;19920;-65
2021/03/16 09:12:07;;;;;;;;;;;;;;;8.17;77.42;102316.47;5096706;28;20270;-65
2021/03/16 09:14:52;;;;;;;;;;;;;;;8.49;76.52;102322.88;5095408;28;19927;-64
2021/03/16 09:17:48;;;;;;;;;;;;;;;8.52;75.47;102312.22;5095641;28;19920;-66
2021/03/16 09:20:38;;;;;;;;;;;;;;;8.69;75.36;102320.31;5095915;28;20389;-66
2021/03/16 09:23:27;;;;;;;;;;;;;;;8.74;75.15;102312.94;5080296;28;19927;-65
2021/03/16 09:26:12;;;;;;;;;;;;;;;8.67;75.30;102308.75;5093773;28;19920;-65
2021/03/16 09:28:59;;;;;;;;;;;;;;;8.98;75.19;102314.22;5080328;28;19987;-66
2021/03/16 09:35:59;;;;;;;;;;;;;;;9.12;72.98;102330.28;5095121;28;19923;-64
2021/03/16 09:38:55;;;;;;;;;;;;;;;8.87;74.44;102337.22;5094905;28;19920;-63
2021/03/16 09:41:30;;;;;;;;;;;;;;;8.84;75.17;102339.66;5094947;28;19920;-67
2021/03/16 09:43:57;;;;;;;;;;;;;;;8.89;75.01;102337.78;5077168;28;19920;-69
2021/03/16 09:46:24;;;;;;;;;;;;;;;9.09;74.41;102334.38;5095000;28;19924;-67
2021/03/16 09:53:11;;;;;;;;;;;;;;;8.79;74.47;102345.94;5094261;28;19923;-66
2021/03/16 09:55:38;;;;;;;;;;;;;;;8.68;76.25;102346.94;5094948;28;19920;-66
2021/03/16 09:58:05;;;;;;;;;;;;;;;8.82;75.30;102341.88;5094741;28;19927;-67
2021/03/16 10:00:31;;;;;;;;;;;;;;;8.47;76.15;102339.59;5094246;28;19931;-64
2021/03/16 10:03:06;;;;;;;;;;;;;;;8.69;76.36;102332.13;5076593;28;19920;-64
2021/03/16 10:05:33;;;;;;;;;;;;;;;8.31;77.67;102326.00;5076405;28;20286;-66
2021/03/16 10:08:03;;;;;;;;;;;;;;;8.23;78.68;102321.75;5094751;28;19920;-68
2021/03/16 10:10:33;;;;;;;;;;;;;;;8.44;78.66;102326.41;5094508;28;19924;-67
2021/03/16 10:13:02;;;;;;;;;;;;;;;8.64;78.50;102326.59;5075967;28;19920;-67
2021/03/16 10:15:30;;;;;;;;;;;;;;;8.83;76.72;102322.38;5076806;28;19943;-67
2021/03/16 10:18:00;;;;;;;;;;;;;;;8.43;78.51;102316.53;5094041;28;20313;-67
2021/03/16 10:20:31;;;;;;;;;;;;;;;8.61;78.36;102320.81;5093958;28;19919;-69
2021/03/16 10:22:59;;;;;;;;;;;;;;;8.88;77.90;102310.56;5094297;28;19920;-67
2021/03/16 10:25:29;;;;;;;;;;;;;;;8.90;77.43;102314.72;5094120;28;19926;-65
2021/03/16 10:28:06;;;;;;;;;;;;;;;8.72;78.38;102311.53;5094784;28;19927;-66
2021/03/16 10:30:40;;;;;;;;;;;;;;;9.07;78.27;102307.16;5076310;28;20294;-63
2021/03/16 10:33:07;;;;;;;;;;;;;;;9.26;76.98;102307.53;5093843;28;20011;-67
2021/03/16 10:35:35;;;;;;;;;;;;;;;9.17;76.67;102306.38;5093931;28;19920;-65
2021/03/16 10:38:05;;;;;;;;;;;;;;;9.18;77.59;102301.72;5093913;28;19920;-67
2021/03/16 10:40:33;;;;;;;;;;;;;;;9.17;77.63;102306.38;5093809;28;19947;-65
2021/03/16 10:43:00;;;;;;;;;;;;;;;9.22;77.80;102298.19;5093276;28;19927;-66
2021/03/16 10:45:27;;;;;;;;;;;;;;;9.41;77.07;102287.53;5076312;28;19920;-63
2021/03/16 10:47:54;;;;;;;;;;;;;;;9.23;76.50;102298.97;5094295;28;19977;-65
2021/03/16 10:50:22;;;;;;;;;;;;;;;9.30;76.93;102300.41;5093401;28;19919;-65
2021/03/16 10:52:48;;;;;;;;;;;;;;;9.37;77.77;102298.25;5093846;28;19924;-64
2021/03/16 10:55:15;;;;;;;;;;;;;;;9.77;76.96;102292.09;5093637;28;19927;-66
2021/03/16 10:57:45;;;;;;;;;;;;;;;9.86;75.77;102285.81;5093525;28;19919;-66
2021/03/16 11:00:15;;;;;;;;;;;;;;;9.70;76.59;102289.59;5094181;28;19920;-65
2021/03/16 11:02:42;;;;;;;;;;;;;;;9.63;77.15;102290.94;5075420;28;19927;-65
2021/03/16 11:05:09;;;;;;;;;;;;;;;9.89;76.09;102299.03;5093471;28;19919;-64
2021/03/16 11:07:36;;;;;;;;;;;;;;;9.80;76.08;102288.81;5094111;28;19927;-70
2021/03/16 11:10:04;;;;;;;;;;;;;;;9.81;76.15;102295.97;5109663;28;20366;-73
2021/03/16 11:12:33;;;;;;;;;;;;;;;9.72;76.46;102298.41;5094559;28;19920;-67
2021/03/16 11:15:00;;;;;;;;;;;;;;;9.90;76.23;102297.13;5093784;28;19927;-70
2021/03/16 11:17:37;;;;;;;;;;;;;;;9.88;76.91;102289.13;5094328;28;19968;-71
2021/03/16 11:24:25;;;;;;;;;;;;;;;10.24;75.38;102279.03;5031206;28;19921;-69
2021/03/16 11:26:55;;;;;;;;;;;;;;;10.19;75.69;102270.78;5030836;28;19921;-67
2021/03/16 11:29:28;;;;;;;;;;;;;;;10.19;75.95;102266.09;5028198;28;20343;-67
2021/03/16 11:31:55;;;;;;;;;;;;;;;10.14;75.96;102259.75;5014276;28;19932;-69
2021/03/16 11:38:51;;;;;;;;;;;;;;;10.82;75.33;102247.38;5077033;28;20274;-68
2021/03/16 11:41:36;;;;;;;;;;;;;;;10.83;74.26;102236.06;5093514;28;19927;-71
2021/03/16 11:44:21;;;;;;;;;;;;;;;10.81;74.08;102240.22;5093366;28;19920;-70
2021/03/16 11:47:11;;;;;;;;;;;;;;;10.74;75.06;102234.16;5093522;28;19920;-70
2021/03/16 11:54:28;;;;;;;;;;;;;;;10.76;74.20;102216.22;5090546;28;19916;-67
2021/03/16 11:57:13;;;;;;;;;;;;;;;10.81;74.85;102210.69;5093276;28;19920;-65
2021/03/16 12:00:02;;;;;;;;;;;;;;;10.84;75.23;102212.91;5092748;28;19927;-67
2021/03/16 12:02:53;;;;;;;;;;;;;;;10.69;74.40;102215.69;5093292;28;20278;-66
2021/03/16 12:05:39;;;;;;;;;;;;;;;10.57;75.07;102217.06;5092947;28;19927;-71
2021/03/16 12:08:28;;;;;;;;;;;;;;;10.52;75.73;102217.91;5090715;28;19924;-67
2021/03/16 12:11:14;;;;;;;;;;;;;;;10.51;75.50;102210.75;5092711;28;19920;-68
2021/03/16 12:14:02;;;;;;;;;;;;;;;10.34;76.15;102207.44;5078190;28;19920;-75
2021/03/16 12:16:54;;;;;;;;;;;;;;;10.37;76.38;102200.56;5094014;28;19924;-72
2021/03/16 12:24:13;;;;;;;;;;;;;;;9.93;77.04;102194.72;5094143;28;19915;-68
2021/03/16 12:26:58;;;;;;;;;;;;;;;10.01;77.71;102191.41;5093326;28;19927;-70
2021/03/16 12:29:51;;;;;;;;;;;;;;;9.87;77.25;102190.31;5092327;28;19920;-70
2021/03/16 12:32:39;;;;;;;;;;;;;;;9.92;78.05;102196.63;5075095;28;19920;-70
2021/03/16 12:35:25;;;;;;;;;;;;;;;10.00;78.06;102189.78;5093228;28;19947;-67
2021/03/16 12:38:10;;;;;;;;;;;;;;;9.97;78.50;102177.38;5093509;28;19927;-67
2021/03/16 12:40:55;;;;;;;;;;;;;;;9.93;78.78;102176.28;5093146;28;19931;-66
2021/03/16 12:43:41;;;;;;;;;;;;;;;9.98;79.50;102170.78;5077595;28;19943;-70
2021/03/16 12:46:27;;;;;;;;;;;;;;;10.11;79.03;102161.19;5092101;28;19927;-68
2021/03/16 12:53:30;;;;;;;;;;;;;;;10.26;79.09;102146.59;5093029;28;19916;-70
2021/03/16 12:56:16;;;;;;;;;;;;;;;9.90;79.74;102143.00;5092193;28;19924;-67
2021/03/16 12:59:02;;;;;;;;;;;;;;;9.87;80.28;102144.34;5092279;28;19927;-65
2021/03/16 13:01:47;;;;;;;;;;;;;;;9.79;80.12;102141.31;5093202;28;20382;-72
2021/03/16 13:04:33;;;;;;;;;;;;;;;9.81;80.27;102136.38;5093034;28;20290;-68
2021/03/16 13:07:19;;;;;;;;;;;;;;;9.97;80.30;102127.03;5095515;28;19926;-68
2021/03/16 13:10:06;;;;;;;;;;;;;;;10.03;81.26;102118.47;5096130;28;19924;-66
2021/03/16 13:12:51;;;;;;;;;;;;;;;9.96;81.55;102114.34;5095585;28;20377;-74
2021/03/16 13:15:38;;;;;;;;;;;;;;;9.99;82.39;102113.78;5095705;28;19943;-65
2021/03/16 13:18:31;;;;;;;;;;;;;;;10.28;82.05;102098.41;5095982;28;20293;-71
2021/03/16 13:21:16;;;;;;;;;;;;;;;10.52;81.41;102095.84;5095560;28;20259;-71
2021/03/16 13:24:02;;;;;;;;;;;;;;;10.55;80.89;102096.13;5096248;28;20357;-67
2021/03/16 13:26:52;;;;;;;;;;;;;;;10.56;79.93;102097.78;5095694;28;19919;-66
2021/03/16 13:29:38;;;;;;;;;;;;;;;10.22;80.94;102088.47;5096104;28;19920;-68
2021/03/16 13:32:24;;;;;;;;;;;;;;;10.55;80.40;102092.56;5094971;28;19943;-67
2021/03/16 13:39:27;;;;;;;;;;;;;;;10.34;80.72;102079.94;5095645;28;20274;-68
2021/03/16 13:42:13;;;;;;;;;;;;;;;10.39;81.14;102069.72;5079727;28;19927;-68
2021/03/16 13:44:58;;;;;;;;;;;;;;;10.55;80.40;102065.81;5094844;28;19927;-68
2021/03/16 13:47:44;;;;;;;;;;;;;;;10.67;79.57;102060.00;5094937;28;19920;-70
2021/03/16 13:50:29;;;;;;;;;;;;;;;10.50;80.07;102062.25;5095105;28;19920;-68
2021/03/16 13:53:14;;;;;;;;;;;;;;;10.42;81.02;102060.91;5095420;28;19927;-67
2021/03/16 13:56:00;;;;;;;;;;;;;;;10.56;80.42;102055.63;5080101;28;20385;-66
2021/03/16 13:58:46;;;;;;;;;;;;;;;10.50;80.44;102065.84;5094704;28;20354;-69
2021/03/16 14:01:32;;;;;;;;;;;;;;;10.43;80.71;102057.03;5095445;28;19942;-72
2021/03/16 14:08:35;;;;;;;;;;;;;;;10.35;81.43;102040.28;5094542;28;19927;-73
2021/03/16 14:11:20;;;;;;;;;;;;;;;10.47;81.32;102029.75;5095076;28;19920;-66
2021/03/16 14:14:06;;;;;;;;;;;;;;;10.62;80.24;102030.53;5094820;28;19924;-70
2021/03/16 14:16:51;;;;;;;;;;;;;;;10.37;82.00;102030.63;5094596;28;19920;-69
2021/03/16 14:19:39;;;;;;;;;;;;;;;10.23;82.92;102026.81;5094406;28;19988;-69
2021/03/16 14:22:24;;;;;;;;;;;;;;;10.23;84.13;102024.06;5094107;28;19920;-71
2021/03/16 14:25:10;;;;;;;;;;;;;;;10.21;84.10;102012.50;5094538;28;19926;-68
2021/03/16 14:27:56;;;;;;;;;;;;;;;10.44;83.58;102005.53;5080159;28;19931;-71
2021/03/16 14:30:41;;;;;;;;;;;;;;;10.57;82.64;101997.50;5094451;28;19927;-71
2021/03/16 14:33:27;;;;;;;;;;;;;;;10.57;82.04;102010.44;5094172;28;20287;-72
2021/03/16 14:36:14;;;;;;;;;;;;;;;10.53;82.40;101993.63;5095019;28;20278;-71
2021/03/16 14:38:59;;;;;;;;;;;;;;;10.78;81.47;101996.28;5094184;28;19927;-70
2021/03/16 14:41:44;;;;;;;;;;;;;;;10.82;81.60;101994.63;5093970;28;19920;-70
2021/03/16 14:44:30;;;;;;;;;;;;;;;11.03;81.30;101989.81;5079247;28;20393;-71
2021/03/16 14:47:32;;;;;;;;;;;;;;;11.17;79.59;101990.81;5075616;28;19919;-68
2021/03/16 14:54:35;;;;;;;;;;;;;;;11.12;79.79;101997.16;5093705;28;20271;-69
2021/03/16 14:57:21;;;;;;;;;;;;;;;10.75;81.01;101994.09;5092617;28;19927;-71
2021/03/16 15:00:09;;;;;;;;;;;;;;;10.82;81.80;101991.03;5094004;28;20285;-69
2021/03/16 15:02:56;;;;;;;;;;;;;;;10.93;81.33;101998.16;5079409;28;19943;-70
2021/03/16 15:05:45;;;;;;;;;;;;;;;10.85;81.76;101993.22;5095155;28;20278;-75
2021/03/16 15:08:34;;;;;;;;;;;;;;;11.04;81.05;101986.75;5044269;28;19920;-74
2021/03/16 15:11:20;;;;;;;;;;;;;;;10.68;82.41;101981.75;5078519;28;19980;-69
2021/03/16 15:14:13;;;;;;;;;;;;;;;10.90;82.61;101985.75;5093009;28;19927;-68
2021/03/16 15:17:08;;;;;;;;;;;;;;;11.08;81.80;101981.50;5093890;28;19920;-72
2021/03/16 15:24:15;;;;;;;;;;;;;;;10.91;83.11;101981.06;5093497;28;20322;-72
2021/03/16 15:27:00;;;;;;;;;;;;;;;10.67;83.52;101980.91;5093781;28;19970;-69
2021/03/16 15:29:46;;;;;;;;;;;;;;;10.68;84.54;101974.31;5092110;28;20301;-73
2021/03/16 15:32:36;;;;;;;;;;;;;;;11.04;83.10;101981.25;5092719;28;19924;-71
2021/03/16 15:35:22;;;;;;;;;;;;;;;10.87;84.16;101988.25;5093740;28;19919;-68
2021/03/16 15:38:09;;;;;;;;;;;;;;;10.73;85.41;101984.47;5092951;28;19920;-67
2021/03/16 15:40:55;;;;;;;;;;;;;;;10.37;86.94;101997.59;5093092;28;19920;-73
2021/03/16 15:44:01;;;;;;;;;;;;;;;10.24;89.01;101995.41;5093056;28;19927;-69